Time;durP1;ratioP1;P1;durP2;ratioP2;P2;SDS_P1;SDS_P2;PMS_P1;PMS_P2;Temp;Humidity;BMP_temperature;BMP_pressure;BME280_temperature;BME280_humidity;BME280_pressure;Samples;Min_cycle;Max_cycle;Signal;HPM_P1;HPM_P2
2021/12/10 00:00:37;;;;;;;9.43;3.30;;;3.90;99.90;;;;;;5021001;28;20025;-87
2021/12/10 00:03:07;;;;;;;14.02;3.90;;;3.90;99.90;;;;;;5019723;28;20053;-85
2021/12/10 00:05:41;;;;;;;9.77;3.38;;;3.90;99.90;;;;;;5018611;28;20565;-87
2021/12/10 00:08:09;;;;;;;10.40;3.28;;;3.90;99.90;;;;;;5018327;28;20125;-83
2021/12/10 00:10:41;;;;;;;7.95;3.00;;;3.90;99.90;;;;;;5013822;28;20022;-84
2021/12/10 00:13:09;;;;;;;10.98;3.38;;;4.00;99.90;;;;;;5018931;28;20017;-86
2021/12/10 00:15:39;;;;;;;7.68;3.00;;;4.00;99.90;;;;;;5025552;28;20018;-85
2021/12/10 00:18:08;;;;;;;8.88;3.30;;;4.00;99.90;;;;;;5005233;28;20056;-84
2021/12/10 00:20:36;;;;;;;8.98;3.53;;;3.90;99.90;;;;;;5014283;28;20041;-84
2021/12/10 00:23:10;;;;;;;12.80;3.22;;;3.90;99.90;;;;;;5038741;28;20078;-84
2021/12/10 00:25:44;;;;;;;10.52;3.53;;;3.90;99.90;;;;;;5006258;28;20036;-87
2021/12/10 00:28:20;;;;;;;7.85;3.15;;;4.00;99.90;;;;;;5027553;28;20030;-86
2021/12/10 00:31:42;;;;;;;10.05;3.00;;;4.00;99.90;;;;;;5017919;28;20375;-82
2021/12/10 00:34:29;;;;;;;8.27;3.05;;;4.00;99.90;;;;;;5016466;28;20045;-83
2021/12/10 00:37:01;;;;;;;15.57;3.22;;;4.00;99.90;;;;;;5015095;28;20059;-87
2021/12/10 00:39:31;;;;;;;8.43;3.30;;;4.00;99.90;;;;;;5019670;28;20201;-84
2021/12/10 00:42:00;;;;;;;8.63;3.65;;;3.90;99.90;;;;;;5017064;28;20025;-84
2021/12/10 00:44:29;;;;;;;6.90;3.03;;;3.90;99.90;;;;;;5019376;28;20485;-89
2021/12/10 00:46:59;;;;;;;11.40;3.42;;;3.90;99.90;;;;;;5000716;28;20474;-86
2021/12/10 00:49:28;;;;;;;11.85;4.35;;;3.90;99.90;;;;;;5016696;28;20641;-89
2021/12/10 00:51:56;;;;;;;11.63;4.43;;;3.90;99.90;;;;;;5013960;28;20033;-87
2021/12/10 00:54:26;;;;;;;12.52;3.65;;;3.90;99.90;;;;;;5029153;28;20049;-82
2021/12/10 00:56:51;;;;;;;12.05;4.28;;;3.80;99.90;;;;;;5002136;28;20045;-84
2021/12/10 00:59:20;;;;;;;6.90;4.03;;;3.70;99.90;;;;;;5022415;28;20036;-84
2021/12/10 01:01:47;;;;;;;10.35;3.55;;;3.70;99.90;;;;;;5019551;28;20025;-85
2021/12/10 01:04:20;;;;;;;9.25;5.38;;;3.70;99.90;;;;;;5019024;28;20045;-80
2021/12/10 01:06:48;;;;;;;13.05;4.15;;;4.00;99.90;;;;;;5018009;28;20051;-87
2021/12/10 01:09:20;;;;;;;9.80;3.95;;;3.70;99.90;;;;;;5010528;28;20055;-86
2021/12/10 01:11:54;;;;;;;7.03;3.53;;;3.70;99.90;;;;;;5017755;28;20017;-87
2021/12/10 01:15:38;;;;;;;8.95;2.90;;;3.70;99.90;;;;;;5023384;28;20469;-87
2021/12/10 01:28:36;;;;;;;7.63;2.65;;;3.90;99.90;;;;;;5006238;28;20112;-87
2021/12/10 01:31:03;;;;;;;11.40;2.80;;;3.90;99.90;;;;;;5017481;28;20136;-83
2021/12/10 01:33:29;;;;;;;12.68;2.65;;;4.10;99.90;;;;;;5031804;28;20063;-85
2021/12/10 01:35:57;;;;;;;6.13;2.80;;;3.90;99.90;;;;;;5019970;28;20041;-85
2021/12/10 01:38:24;;;;;;;9.65;3.20;;;4.80;99.90;;;;;;5016930;28;20025;-86
2021/12/10 01:40:55;;;;;;;10.40;2.70;;;3.90;99.90;;;;;;5015209;28;20028;-85
2021/12/10 01:43:23;;;;;;;6.88;2.60;;;3.80;99.90;;;;;;5016385;28;20056;-87
2021/12/10 01:45:53;;;;;;;9.07;2.90;;;3.80;99.90;;;;;;5017345;28;20063;-87
2021/12/10 01:48:30;;;;;;;12.52;3.75;;;3.70;99.90;;;;;;5019025;28;20390;-87
2021/12/10 01:50:57;;;;;;;7.50;3.50;;;3.70;99.90;;;;;;5009658;28;20037;-83
2021/12/10 01:53:28;;;;;;;9.63;3.50;;;3.60;99.90;;;;;;5014832;28;20065;-83
2021/12/10 01:55:59;;;;;;;7.75;4.13;;;3.60;99.90;;;;;;5018352;28;20021;-80
2021/12/10 01:58:27;;;;;;;13.65;3.70;;;3.50;99.90;;;;;;5020804;28;20022;-85
2021/12/10 02:01:02;;;;;;;11.45;3.88;;;3.60;99.90;;;;;;5013263;28;20021;-84
2021/12/10 02:03:28;;;;;;;9.65;3.92;;;3.60;99.90;;;;;;5034376;28;20029;-86
2021/12/10 02:05:58;;;;;;;9.40;3.38;;;3.50;99.90;;;;;;5018220;28;20021;-85
2021/12/10 02:08:24;;;;;;;10.52;3.75;;;3.50;99.90;;;;;;5030929;28;20036;-83
2021/12/10 02:10:50;;;;;;;5.97;3.10;;;3.50;99.90;;;;;;5020256;28;20501;-86
2021/12/10 02:13:16;;;;;;;7.40;3.17;;;3.50;99.90;;;;;;5017384;28;20036;-85
2021/12/10 02:15:43;;;;;;;12.68;3.53;;;3.50;99.90;;;;;;5017566;28;20155;-84
2021/12/10 02:18:12;;;;;;;15.60;4.47;;;3.50;99.90;;;;;;5018335;28;20120;-82
2021/12/10 02:21:07;;;;;;;16.48;3.80;;;3.50;99.90;;;;;;5017091;28;20367;-83
2021/12/10 02:23:38;;;;;;;12.93;3.85;;;3.50;99.90;;;;;;5009156;28;20038;-81
2021/12/10 02:26:06;;;;;;;;;;;3.40;99.90;;;;;;5032104;28;20033;-83
2021/12/10 02:28:33;;;;;;;8.93;3.40;;;3.40;99.90;;;;;;5036284;28;19909;-83
2021/12/10 02:30:59;;;;;;;9.65;3.88;;;3.30;99.90;;;;;;5017708;28;20071;-81
2021/12/10 02:33:26;;;;;;;9.60;4.07;;;3.30;99.90;;;;;;5018831;28;20025;-83
2021/12/10 02:35:54;;;;;;;14.70;4.20;;;3.30;99.90;;;;;;5036184;28;20030;-81
2021/12/10 02:38:22;;;;;;;11.85;3.38;;;3.30;99.90;;;;;;5004005;28;20041;-83
2021/12/10 02:40:51;;;;;;;10.13;3.83;;;3.30;99.90;;;;;;5015838;28;20035;-86
2021/12/10 02:43:20;;;;;;;9.10;3.30;;;3.20;99.90;;;;;;5015096;28;20371;-84
2021/12/10 02:45:51;;;;;;;8.25;3.70;;;3.20;99.90;;;;;;5019187;28;20389;-84
2021/12/10 02:48:18;;;;;;;11.38;3.75;;;3.20;99.90;;;;;;5022908;28;20025;-83
2021/12/10 02:50:45;;;;;;;7.80;3.55;;;3.20;99.90;;;;;;5019293;28;20479;-83
2021/12/10 02:53:14;;;;;;;8.95;3.35;;;3.20;99.90;;;;;;5015646;28;20034;-83
2021/12/10 02:55:41;;;;;;;8.75;3.15;;;3.20;99.90;;;;;;5012963;28;20092;-84
2021/12/10 02:58:11;;;;;;;11.00;3.60;;;3.10;99.90;;;;;;5018932;28;20052;-83
2021/12/10 03:00:54;;;;;;;13.27;3.45;;;3.10;99.90;;;;;;5014827;28;20018;-82
2021/12/10 03:03:19;;;;;;;11.90;3.53;;;3.10;99.90;;;;;;5017697;28;20120;-84
2021/12/10 03:05:47;;;;;;;8.70;2.95;;;3.10;99.90;;;;;;5016021;28;20017;-83
2021/12/10 03:08:13;;;;;;;10.07;3.30;;;3.00;99.90;;;;;;5031652;28;20049;-85
2021/12/10 03:10:51;;;;;;;10.65;3.30;;;3.00;99.90;;;;;;5033073;28;20021;-85
2021/12/10 03:13:20;;;;;;;15.85;4.40;;;3.00;99.90;;;;;;5022376;28;20034;-81
2021/12/10 03:15:46;;;;;;;12.27;3.70;;;3.00;99.90;;;;;;5018986;28;20031;-82
2021/12/10 03:18:17;;;;;;;9.68;3.13;;;3.00;99.90;;;;;;5020268;28;20025;-84
2021/12/10 03:20:43;;;;;;;9.60;3.70;;;3.10;99.90;;;;;;5017905;28;20030;-81
2021/12/10 03:23:11;;;;;;;8.82;3.30;;;3.10;99.90;;;;;;5016024;28;20477;-81
2021/12/10 03:25:37;;;;;;;8.48;2.88;;;3.10;99.90;;;;;;5016681;28;20061;-85
2021/12/10 03:28:04;;;;;;;10.55;3.15;;;3.00;99.90;;;;;;5018495;28;20798;-83
2021/12/10 03:30:34;;;;;;;6.55;2.72;;;3.00;99.90;;;;;;5021320;28;20029;-81
2021/12/10 03:33:01;;;;;;;7.33;2.90;;;3.00;99.90;;;;;;4999237;28;20037;-84
2021/12/10 03:35:35;;;;;;;12.35;2.85;;;3.00;99.90;;;;;;5019123;28;20048;-82
2021/12/10 03:38:06;;;;;;;11.88;3.03;;;3.00;99.90;;;;;;5012111;28;20476;-85
2021/12/10 03:40:32;;;;;;;9.97;2.97;;;3.10;99.90;;;;;;5017867;28;20097;-82
2021/12/10 03:42:59;;;;;;;7.30;2.72;;;3.10;99.90;;;;;;5019126;28;20041;-85
2021/12/10 03:45:34;;;;;;;9.60;2.88;;;3.00;99.90;;;;;;5021807;28;20116;-81
2021/12/10 03:48:02;;;;;;;9.48;3.00;;;3.10;99.90;;;;;;5026586;28;20086;-83
2021/12/10 03:50:32;;;;;;;10.30;3.10;;;3.10;99.90;;;;;;5021178;28;20335;-85
2021/12/10 03:53:00;;;;;;;7.78;3.00;;;3.00;99.90;;;;;;5019925;28;20025;-83
2021/12/10 03:55:27;;;;;;;9.68;3.03;;;3.00;99.90;;;;;;5019353;28;20394;-84
2021/12/10 03:57:56;;;;;;;12.88;5.10;;;3.00;99.90;;;;;;5018684;28;20021;-84
2021/12/10 04:00:27;;;;;;;7.40;2.47;;;3.00;99.90;;;;;;5021569;28;20025;-83
2021/12/10 04:02:54;;;;;;;7.18;2.97;;;3.50;99.90;;;;;;5020780;28;20033;-85
2021/12/10 04:05:21;;;;;;;9.30;3.00;;;3.00;99.90;;;;;;5036309;28;20118;-84
2021/12/10 04:07:48;;;;;;;9.00;2.63;;;3.00;99.90;;;;;;5020036;28;20041;-84
2021/12/10 04:10:17;;;;;;;10.43;3.47;;;3.00;99.90;;;;;;5017733;28;20026;-84
2021/12/10 04:12:44;;;;;;;8.07;3.17;;;3.00;99.90;;;;;;5021092;28;20026;-83
2021/12/10 04:15:15;;;;;;;6.47;1.85;;;3.30;99.90;;;;;;5022969;28;20025;-83
2021/12/10 04:17:40;;;;;;;10.27;2.35;;;3.00;99.90;;;;;;5018493;28;20393;-82
2021/12/10 04:20:08;;;;;;;7.03;2.30;;;2.90;99.90;;;;;;5016133;28;20041;-84
2021/12/10 04:22:34;;;;;;;7.10;1.95;;;2.90;99.90;;;;;;5036067;28;20025;-82
2021/12/10 04:25:04;;;;;;;6.35;2.00;;;2.90;99.90;;;;;;5019328;28;20029;-85
2021/12/10 04:27:30;;;;;;;7.85;1.92;;;2.80;99.90;;;;;;5017422;28;20021;-85
2021/12/10 04:29:58;;;;;;;4.72;1.75;;;2.90;99.90;;;;;;5015216;28;20037;-85
2021/12/10 04:32:26;;;;;;;6.90;1.75;;;2.90;99.90;;;;;;5019072;28;20052;-82
2021/12/10 04:34:53;;;;;;;8.93;1.33;;;2.90;99.90;;;;;;5032832;28;20044;-84
2021/12/10 04:37:20;;;;;;;7.82;2.30;;;3.30;99.90;;;;;;5018363;28;20176;-84
2021/12/10 04:39:48;;;;;;;10.93;3.00;;;3.00;99.90;;;;;;5016264;28;20044;-81
2021/12/10 04:42:22;;;;;;;4.35;1.40;;;3.00;99.90;;;;;;5017015;28;20029;-81
2021/12/10 04:44:52;;;;;;;4.40;1.70;;;3.00;99.90;;;;;;5017136;28;20035;-83
2021/12/10 04:47:18;;;;;;;9.85;1.70;;;3.10;99.90;;;;;;5035929;28;20029;-85
2021/12/10 04:49:44;;;;;;;4.57;1.60;;;3.00;99.90;;;;;;5017407;28;20106;-82
2021/12/10 04:52:10;;;;;;;5.85;1.80;;;3.00;99.90;;;;;;5017782;28;20040;-84
2021/12/10 04:54:37;;;;;;;6.15;2.17;;;3.00;99.90;;;;;;5017874;28;20033;-81
2021/12/10 04:57:04;;;;;;;5.82;1.90;;;3.00;99.90;;;;;;5021794;28;20044;-83
2021/12/10 04:59:32;;;;;;;6.38;1.90;;;3.00;99.90;;;;;;5017399;28;20043;-82
2021/12/10 05:02:00;;;;;;;8.50;1.77;;;3.00;99.90;;;;;;5015621;28;20025;-84
2021/12/10 05:04:28;;;;;;;6.50;1.60;;;3.00;99.90;;;;;;5035152;28;20458;-84
2021/12/10 05:06:55;;;;;;;5.30;1.85;;;3.00;99.90;;;;;;5016892;28;20041;-82
2021/12/10 05:09:23;;;;;;;4.45;1.73;;;3.00;99.90;;;;;;5019000;28;20076;-79
2021/12/10 05:11:49;;;;;;;4.47;1.67;;;3.00;99.90;;;;;;5017077;28;20482;-84
2021/12/10 05:14:16;;;;;;;6.03;1.70;;;3.40;99.90;;;;;;5016823;28;20034;-82
2021/12/10 05:16:45;;;;;;;6.53;1.98;;;3.00;99.90;;;;;;5014529;28;20034;-87
2021/12/10 05:19:15;;;;;;;7.38;2.47;;;3.00;99.90;;;;;;5015650;28;20049;-86
2021/12/10 05:21:43;;;;;;;13.75;2.55;;;3.00;99.90;;;;;;5017209;28;20048;-85
2021/12/10 05:24:10;;;;;;;7.95;1.95;;;3.00;99.90;;;;;;5036112;28;20512;-82
2021/12/10 05:26:36;;;;;;;7.88;1.92;;;3.00;99.90;;;;;;5018650;28;20021;-85
2021/12/10 05:29:05;;;;;;;8.82;2.78;;;4.10;99.90;;;;;;5015730;28;20603;-84
2021/12/10 05:31:31;;;;;;;9.43;2.35;;;3.00;99.90;;;;;;5016512;28;20025;-83
2021/12/10 05:33:57;;;;;;;7.78;2.35;;;3.00;99.90;;;;;;5015481;28;20035;-83
2021/12/10 05:36:23;;;;;;;5.82;1.90;;;2.90;99.90;;;;;;5014227;28;20025;-83
2021/12/10 05:38:49;;;;;;;6.25;2.33;;;2.90;99.90;;;;;;5016539;28;20073;-82
2021/12/10 05:41:15;;;;;;;5.55;1.77;;;2.90;99.90;;;;;;5020850;28;20120;-82
2021/12/10 05:43:42;;;;;;;4.35;1.83;;;2.90;99.90;;;;;;5023309;28;20112;-84
2021/12/10 05:46:09;;;;;;;8.02;2.25;;;3.00;99.90;;;;;;5032610;28;20067;-84
2021/12/10 05:48:36;;;;;;;8.57;2.00;;;3.00;99.90;;;;;;5025206;28;20079;-82
2021/12/10 05:51:02;;;;;;;9.77;2.40;;;3.00;99.90;;;;;;5023845;28;20116;-84
2021/12/10 05:53:28;;;;;;;7.15;2.10;;;3.00;99.90;;;;;;5018026;28;20393;-84
2021/12/10 05:55:55;;;;;;;7.70;2.33;;;3.00;99.90;;;;;;5023960;28;20520;-84
2021/12/10 05:58:21;;;;;;;8.85;2.22;;;3.00;99.90;;;;;;5031228;28;20048;-83
2021/12/10 06:00:50;;;;;;;7.07;2.35;;;2.90;99.90;;;;;;5019334;28;20431;-82
2021/12/10 06:03:17;;;;;;;8.02;2.47;;;2.90;99.90;;;;;;5012044;28;20061;-82
2021/12/10 06:05:45;;;;;;;10.80;3.33;;;2.90;99.90;;;;;;5013793;28;20022;-80
2021/12/10 06:08:11;;;;;;;6.20;2.28;;;2.80;99.90;;;;;;5018201;28;20045;-82
2021/12/10 06:10:38;;;;;;;6.78;3.17;;;2.80;99.90;;;;;;5023975;28;20119;-81
2021/12/10 06:13:04;;;;;;;6.40;2.60;;;2.80;99.90;;;;;;5018708;28;20107;-82
2021/12/10 06:15:30;;;;;;;10.63;2.88;;;2.80;99.90;;;;;;5037553;28;20040;-81
2021/12/10 06:17:56;;;;;;;7.75;1.95;;;2.80;99.90;;;;;;5023322;28;20124;-84
2021/12/10 06:20:36;;;;;;;5.60;2.53;;;2.90;99.90;;;;;;5021686;28;20128;-82
2021/12/10 06:23:03;;;;;;;8.65;2.70;;;2.90;99.90;;;;;;5023509;28;20500;-86
2021/12/10 06:25:31;;;;;;;12.13;3.15;;;3.00;99.90;;;;;;5021598;28;20029;-86
2021/12/10 06:27:57;;;;;;;6.82;2.47;;;3.00;99.90;;;;;;5014411;28;20390;-80
2021/12/10 06:30:28;;;;;;;5.43;2.72;;;2.90;99.90;;;;;;5015598;28;20326;-82
2021/12/10 06:32:55;;;;;;;7.75;3.00;;;2.80;99.90;;;;;;5022133;28;20029;-84
2021/12/10 06:35:24;;;;;;;7.07;2.63;;;2.80;99.90;;;;;;5034356;28;20124;-83
2021/12/10 06:37:53;;;;;;;10.88;3.55;;;2.90;99.90;;;;;;5026539;28;20030;-81
2021/12/10 06:40:22;;;;;;;11.60;2.80;;;2.90;99.90;;;;;;5023281;28;20030;-82
2021/12/10 06:42:49;;;;;;;11.27;2.97;;;2.80;99.90;;;;;;5021877;28;20093;-81
2021/12/10 06:45:18;;;;;;;7.53;3.10;;;2.80;99.90;;;;;;5024397;28;20039;-81
2021/12/10 06:48:01;;;;;;;8.20;2.50;;;2.80;99.90;;;;;;5024612;28;20053;-81
2021/12/10 06:50:32;;;;;;;7.18;2.50;;;2.90;99.90;;;;;;5036021;28;20053;-86
2021/12/10 06:53:00;;;;;;;6.50;2.45;;;2.90;99.90;;;;;;5030132;28;20044;-84
2021/12/10 06:55:30;;;;;;;8.70;2.25;;;3.00;99.90;;;;;;5039498;28;20033;-88
2021/12/10 06:58:01;;;;;;;8.25;2.63;;;3.00;99.90;;;;;;5026861;28;20025;-83
2021/12/10 07:00:41;;;;;;;5.60;2.10;;;3.00;99.90;;;;;;5032208;28;20103;-83
2021/12/10 07:03:13;;;;;;;5.15;2.22;;;3.00;99.90;;;;;;5034890;28;20053;-80
2021/12/10 07:05:40;;;;;;;8.18;2.33;;;3.10;99.90;;;;;;5032932;28;20120;-83
2021/12/10 07:08:07;;;;;;;6.90;2.53;;;3.00;99.90;;;;;;5034705;28;20059;-82
2021/12/10 07:10:38;;;;;;;9.63;2.65;;;3.00;99.90;;;;;;5034985;28;20076;-84
2021/12/10 07:13:09;;;;;;;11.15;2.70;;;3.00;99.90;;;;;;5017508;28;20026;-84
2021/12/10 07:15:40;;;;;;;10.05;3.03;;;2.90;99.90;;;;;;5023318;28;20032;-82
2021/12/10 07:18:08;;;;;;;6.65;2.33;;;4.90;99.90;;;;;;5040087;28;20045;-85
2021/12/10 07:20:42;;;;;;;9.48;2.53;;;3.00;99.90;;;;;;5040940;28;20018;-85
2021/12/10 07:23:09;;;;;;;7.95;2.45;;;2.90;99.90;;;;;;5027154;28;20033;-86
2021/12/10 07:25:36;;;;;;;6.47;2.28;;;3.00;99.90;;;;;;5037888;28;20036;-84
2021/12/10 07:28:01;;;;;;;6.18;2.22;;;4.70;99.90;;;;;;5030322;28;20128;-85
2021/12/10 07:30:29;;;;;;;8.50;2.47;;;2.90;99.90;;;;;;5042312;28;20014;-82
2021/12/10 07:32:56;;;;;;;5.03;1.98;;;2.90;99.90;;;;;;5037238;28;20033;-83
2021/12/10 07:35:21;;;;;;;8.57;2.40;;;2.90;99.90;;;;;;5032903;28;20048;-81
2021/12/10 07:37:48;;;;;;;11.45;2.60;;;2.70;99.90;;;;;;5035571;28;20050;-83
2021/12/10 07:40:21;;;;;;;6.93;2.50;;;2.60;99.90;;;;;;5038683;28;20074;-84
2021/12/10 07:42:47;;;;;;;10.05;2.60;;;4.00;99.90;;;;;;5051669;28;20076;-84
2021/12/10 07:45:13;;;;;;;5.55;2.45;;;2.60;99.90;;;;;;5029688;28;20033;-86
2021/12/10 07:47:40;;;;;;;6.47;2.40;;;4.30;99.90;;;;;;5022252;28;20029;-84
2021/12/10 07:50:13;;;;;;;6.63;2.28;;;3.10;99.90;;;;;;5021399;28;20025;-83
2021/12/10 07:52:40;;;;;;;7.90;2.03;;;;;;;;;;5016884;28;20060;-81
2021/12/10 07:55:10;;;;;;;5.30;2.35;;;3.10;99.90;;;;;;5021078;28;20060;-83
2021/12/10 07:57:36;;;;;;;4.78;2.40;;;2.50;99.90;;;;;;5021823;28;20389;-84
2021/12/10 08:00:08;;;;;;;9.30;2.20;;;4.80;99.90;;;;;;5023185;28;20045;-85
2021/12/10 08:02:34;;;;;;;21.48;2.95;;;;;;;;;;5018095;28;20030;-84
2021/12/10 08:04:59;;;;;;;8.48;2.50;;;2.50;99.90;;;;;;5020146;28;20033;-84
2021/12/10 08:07:26;;;;;;;7.25;2.83;;;;;;;;;;5015467;28;20030;-82
2021/12/10 08:09:52;;;;;;;7.50;3.72;;;2.50;99.90;;;;;;5017726;28;20217;-82
2021/12/10 08:12:17;;;;;;;5.43;2.25;;;2.50;99.90;;;;;;5022163;28;20176;-81
2021/12/10 08:14:45;;;;;;;4.68;2.15;;;;;;;;;;5021804;28;20025;-81
2021/12/10 08:17:12;;;;;;;6.22;2.25;;;2.50;99.90;;;;;;5019723;28;20029;-82
2021/12/10 08:19:38;;;;;;;5.38;2.00;;;;;;;;;;5018605;28;20040;-84
2021/12/10 08:22:04;;;;;;;5.88;2.17;;;2.40;99.90;;;;;;5011548;28;20017;-85
2021/12/10 08:24:30;;;;;;;5.80;2.47;;;;;;;;;;5021934;28;20021;-82
2021/12/10 08:26:56;;;;;;;9.68;3.08;;;2.40;99.90;;;;;;5021835;28;20018;-79
2021/12/10 08:29:25;;;;;;;8.95;2.80;;;4.20;99.90;;;;;;5035094;28;20201;-82
2021/12/10 08:31:51;;;;;;;7.05;2.50;;;2.40;99.90;;;;;;5023728;28;20025;-83
2021/12/10 08:34:17;;;;;;;7.38;3.45;;;2.40;99.90;;;;;;5019191;28;20548;-80
2021/12/10 08:36:44;;;;;;;9.45;2.45;;;2.50;99.90;;;;;;5026928;28;20037;-81
2021/12/10 08:39:11;;;;;;;6.65;3.13;;;2.50;99.90;;;;;;5019868;28;20068;-81
2021/12/10 08:41:37;;;;;;;11.52;3.10;;;2.50;99.90;;;;;;5022689;28;20029;-83
2021/12/10 08:44:04;;;;;;;8.45;2.72;;;2.30;99.90;;;;;;5016990;28;20029;-82
2021/12/10 08:46:31;;;;;;;9.98;3.45;;;2.30;99.90;;;;;;5014810;28;20049;-82
2021/12/10 08:48:59;;;;;;;6.82;3.08;;;2.30;99.90;;;;;;5019287;28;20076;-80
2021/12/10 08:51:52;;;;;;;12.93;3.63;;;2.30;99.90;;;;;;5013356;28;20038;-81
2021/12/10 08:54:23;;;;;;;7.05;3.05;;;2.30;99.90;;;;;;5014381;28;20061;-84
2021/12/10 08:56:49;;;;;;;9.25;3.80;;;2.20;99.90;;;;;;5022680;28;20299;-83
2021/12/10 08:59:15;;;;;;;12.05;3.60;;;;;;;;;;5018927;28;20030;-82
2021/12/10 09:01:47;;;;;;;7.05;3.28;;;2.20;99.90;;;;;;5021193;28;20049;-82
2021/12/10 09:04:13;;;;;;;7.47;3.78;;;2.20;99.90;;;;;;5021572;28;20484;-82
2021/12/10 09:06:43;;;;;;;16.42;3.38;;;2.20;99.90;;;;;;5021693;28;20029;-85
2021/12/10 09:09:11;;;;;;;12.23;3.72;;;2.20;99.90;;;;;;5035700;28;20025;-81
2021/12/10 09:11:41;;;;;;;9.57;3.42;;;2.20;99.90;;;;;;5017615;28;20061;-83
2021/12/10 09:14:08;;;;;;;8.25;3.60;;;2.20;99.90;;;;;;5019881;28;20406;-83
2021/12/10 09:16:36;;;;;;;10.98;4.18;;;2.30;99.90;;;;;;5018873;28;20551;-82
2021/12/10 09:19:05;;;;;;;8.52;3.58;;;2.30;99.90;;;;;;5019171;28;20213;-83
2021/12/10 09:21:32;;;;;;;5.72;4.13;;;3.00;99.90;;;;;;5018188;28;20029;-84
2021/12/10 09:24:04;;;;;;;6.75;3.10;;;2.20;99.90;;;;;;5031994;28;20021;-81
2021/12/10 09:26:34;;;;;;;7.75;3.50;;;2.20;99.90;;;;;;5025982;28;20037;-82
2021/12/10 09:29:03;;;;;;;6.97;3.00;;;2.20;99.90;;;;;;5035821;28;20281;-80
2021/12/10 09:31:29;;;;;;;5.15;3.00;;;2.20;99.90;;;;;;5030240;28;20029;-84
2021/12/10 09:33:57;;;;;;;7.63;3.20;;;2.30;99.90;;;;;;5020686;28;20087;-86
2021/12/10 09:36:23;;;;;;;9.40;3.20;;;2.30;99.90;;;;;;5020129;28;20037;-84
2021/12/10 09:38:50;;;;;;;5.95;2.95;;;2.30;99.90;;;;;;5017748;28;20029;-83
2021/12/10 09:41:16;;;;;;;6.35;3.40;;;2.60;99.90;;;;;;5017647;28;20021;-81
2021/12/10 09:43:45;;;;;;;7.57;3.17;;;2.30;99.90;;;;;;5021940;28;20113;-81
2021/12/10 09:46:12;;;;;;;6.07;3.03;;;2.50;99.90;;;;;;5021259;28;20439;-80
2021/12/10 09:48:40;;;;;;;9.73;3.20;;;2.40;99.90;;;;;;5018957;28;20099;-84
2021/12/10 09:51:18;;;;;;;5.50;3.10;;;2.30;99.90;;;;;;5020574;28;20084;-83
2021/12/10 09:53:50;;;;;;;5.53;3.35;;;2.40;99.90;;;;;;5032423;28;20029;-84
2021/12/10 09:56:17;;;;;;;5.15;2.58;;;2.30;99.90;;;;;;5023313;28;20093;-79
2021/12/10 09:58:43;;;;;;;7.10;2.90;;;3.60;99.90;;;;;;5035166;28;20009;-85
2021/12/10 10:01:24;;;;;;;5.90;3.10;;;2.40;99.90;;;;;;5028852;28;20060;-84
2021/12/10 10:03:54;;;;;;;6.57;2.88;;;2.30;99.90;;;;;;5034609;28;20059;-79
2021/12/10 10:06:20;;;;;;;7.82;3.10;;;3.60;99.90;;;;;;5040670;28;20112;-87
2021/12/10 10:08:46;;;;;;;5.78;2.90;;;2.40;99.90;;;;;;5020310;28;20055;-78
2021/12/10 10:11:24;;;;;;;5.15;3.40;;;4.40;99.90;;;;;;5017570;28;20069;-82
2021/12/10 10:13:52;;;;;;;4.75;3.00;;;2.40;99.90;;;;;;5018936;28;20037;-80
2021/12/10 10:16:20;;;;;;;6.03;3.30;;;2.20;99.90;;;;;;5015746;28;20022;-81
2021/12/10 10:18:47;;;;;;;5.45;3.30;;;3.40;99.90;;;;;;5022039;28;20036;-82
2021/12/10 10:21:24;;;;;;;10.73;3.40;;;2.30;99.90;;;;;;5020031;28;20033;-83
2021/12/10 10:23:50;;;;;;;4.22;2.75;;;2.40;99.90;;;;;;5035625;28;20104;-81
2021/12/10 10:26:21;;;;;;;5.40;2.80;;;2.40;99.90;;;;;;5023524;28;20120;-82
2021/12/10 10:28:48;;;;;;;6.15;3.15;;;2.50;99.90;;;;;;5019865;28;20057;-84
2021/12/10 10:31:19;;;;;;;4.65;2.88;;;2.60;99.90;;;;;;5022018;28;20033;-80
2021/12/10 10:33:49;;;;;;;3.88;2.60;;;2.50;99.90;;;;;;5031771;23;20034;-85
2021/12/10 10:36:20;;;;;;;5.25;2.83;;;2.50;99.90;;;;;;5049328;28;20036;-82
2021/12/10 10:38:53;;;;;;;7.13;3.00;;;2.50;99.90;;;;;;5048665;28;20045;-86
2021/12/10 10:41:23;;;;;;;7.57;3.50;;;3.00;99.90;;;;;;5043974;28;20030;-86
2021/12/10 10:43:49;;;;;;;4.72;2.90;;;2.60;99.90;;;;;;5046695;28;20036;-83
2021/12/10 10:46:15;;;;;;;8.52;3.20;;;4.00;99.90;;;;;;5043709;28;20060;-83
2021/12/10 10:48:43;;;;;;;5.80;3.47;;;5.00;99.90;;;;;;5029912;28;20033;-82
2021/12/10 10:51:17;;;;;;;5.57;2.92;;;3.90;99.90;;;;;;5051655;28;20458;-82
2021/12/10 10:53:53;;;;;;;6.15;3.90;;;2.80;99.90;;;;;;5039420;28;20075;-85
2021/12/10 10:56:32;;;;;;;5.45;3.15;;;2.80;99.90;;;;;;5038116;28;20041;-82
2021/12/10 10:59:02;;;;;;;5.72;3.40;;;2.90;99.90;;;;;;5048353;28;20049;-84
2021/12/10 11:01:57;;;;;;;4.88;3.08;;;2.90;99.90;;;;;;5036385;28;20803;-85
2021/12/10 11:04:33;;;;;;;5.53;2.88;;;3.00;99.90;;;;;;5034387;28;20080;-84
2021/12/10 11:07:16;;;;;;;6.13;3.60;;;3.00;99.90;;;;;;5029166;28;20051;-83
2021/12/10 11:10:02;;;;;;;5.00;3.28;;;2.90;99.90;;;;;;5034728;28;20033;-85
2021/12/10 11:12:34;;;;;;;5.50;2.97;;;2.80;99.90;;;;;;5035837;28;20057;-82
2021/12/10 11:15:07;;;;;;;8.35;3.38;;;2.90;99.90;;;;;;5034632;28;20025;-84
2021/12/10 11:17:41;;;;;;;4.65;3.50;;;3.70;99.90;;;;;;5030243;28;20498;-83
2021/12/10 11:20:11;;;;;;;5.18;3.25;;;2.80;99.90;;;;;;5034567;28;20122;-84
2021/12/10 11:23:07;;;;;;;6.05;3.50;;;2.90;99.90;;;;;;5049065;28;20050;-87
2021/12/10 11:25:59;;;;;;;;;;;;;;;;;;;;;
2021/12/10 11:28:33;;;;;;;6.05;3.35;;;3.00;99.90;;;;;;5039515;28;20107;-87
2021/12/10 11:31:18;;;;;;;6.07;3.90;;;3.00;99.90;;;;;;5035286;28;20053;-83
2021/12/10 11:33:52;;;;;;;4.63;3.22;;;3.10;99.90;;;;;;5043831;28;20025;-85
2021/12/10 11:36:27;;;;;;;7.00;3.70;;;2.90;99.90;;;;;;5038301;28;20020;-85
2021/12/10 11:39:03;;;;;;;5.68;3.70;;;2.90;99.90;;;;;;5039799;28;20029;-85
2021/12/10 11:41:55;;;;;;;5.22;3.78;;;2.70;99.90;;;;;;5055103;28;20033;-83
2021/12/10 11:44:54;;;;;;;5.70;3.70;;;3.10;99.90;;;;;;5028802;28;20038;-87
2021/12/10 11:47:39;;;;;;;7.57;3.95;;;5.20;99.90;;;;;;5032111;28;20040;-84
2021/12/10 11:50:23;;;;;;;5.55;3.70;;;5.60;99.90;;;;;;5037392;28;20033;-82
2021/12/10 11:53:18;;;;;;;5.07;3.60;;;3.10;99.90;;;;;;5037473;28;20495;-83
2021/12/10 12:00:01;;;;;;;6.32;3.90;;;3.10;99.90;;;;;;5027320;28;20061;-82
2021/12/10 12:03:02;;;;;;;6.35;3.78;;;3.30;99.90;;;;;;5021613;28;20046;-87
2021/12/10 12:05:37;;;;;;;5.53;3.80;;;3.20;99.90;;;;;;5032192;28;20441;-85
2021/12/10 12:08:13;;;;;;;9.65;3.95;;;3.20;99.90;;;;;;5033459;28;20025;-87
2021/12/10 12:10:44;;;;;;;6.45;4.07;;;4.70;99.90;;;;;;5029728;28;20030;-84
2021/12/10 12:16:00;;;;;;;6.10;4.15;;;3.10;99.90;;;;;;5030140;28;20353;-83
2021/12/10 12:18:44;;;;;;;6.75;4.43;;;3.10;99.90;;;;;;5035463;28;20124;-82
2021/12/10 12:28:16;;;;;;;6.07;4.10;;;3.10;99.90;;;;;;5000772;28;20041;-83
2021/12/10 12:31:07;;;;;;;6.28;4.50;;;3.20;99.90;;;;;;5052386;28;20040;-82
2021/12/10 12:33:59;;;;;;;;;;;3.10;99.90;;;;;;5059992;28;20026;-83
2021/12/10 12:36:26;;;;;;;6.75;3.90;;;3.10;99.90;;;;;;5049791;28;19984;-83
2021/12/10 12:40:09;;;;;;;5.18;3.72;;;3.10;99.90;;;;;;5064467;28;20026;-82
2021/12/10 12:42:31;;;;;;;5.43;3.70;;;3.10;99.90;;;;;;5040922;28;20487;-84
2021/12/10 12:45:50;;;;;;;;;;;3.30;99.90;;;;;;5037228;28;20063;-85
2021/12/10 12:48:13;;;;;;;7.18;3.17;;;3.10;99.90;;;;;;5037567;28;19942;-80
2021/12/10 12:51:13;;;;;;;5.45;3.50;;;3.20;99.90;;;;;;5033262;28;20096;-85
2021/12/10 12:53:39;;;;;;;5.13;3.22;;;;;;;;;;5048910;28;20067;-82
2021/12/10 12:56:23;;;;;;;4.53;3.30;;;3.10;99.90;;;;;;5039010;28;20093;-83
2021/12/10 12:58:55;;;;;;;5.05;3.40;;;3.20;99.90;;;;;;5034624;28;20838;-83
2021/12/10 13:01:56;;;;;;;5.47;2.95;;;3.20;99.90;;;;;;5054356;28;20025;-83
2021/12/10 13:04:48;;;;;;;5.63;3.83;;;3.30;99.90;;;;;;5039891;28;20045;-85
2021/12/10 13:07:34;;;;;;;6.97;3.97;;;5.20;99.90;;;;;;5007999;28;20040;-82
2021/12/10 13:10:03;;;;;;;5.55;3.28;;;;;;;;;;5024725;28;20052;-84
2021/12/10 13:15:14;;;;;;;3.92;2.53;;;2.50;99.90;;;;;;5033249;28;20025;-86
2021/12/10 13:17:57;;;;;;;4.85;2.70;;;3.80;99.90;;;;;;5029652;28;20064;-82
2021/12/10 13:20:49;;;;;;;4.53;2.80;;;3.50;99.90;;;;;;5036974;28;20048;-82
2021/12/10 13:23:21;;;;;;;;;;;5.50;99.90;;;;;;5032926;28;20034;-84
2021/12/10 13:25:49;;;;;;;4.82;2.97;;;3.50;99.90;;;;;;5030774;28;19927;-83
2021/12/10 13:28:16;;;;;;;5.05;3.05;;;;;;;;;;5028284;28;20109;-85
2021/12/10 13:30:52;;;;;;;4.78;3.00;;;3.50;99.90;;;;;;5032896;28;20071;-84
2021/12/10 13:33:25;;;;;;;7.22;3.60;;;3.50;99.90;;;;;;5051551;28;20076;-85
2021/12/10 13:36:04;;;;;;;6.10;3.10;;;3.60;99.90;;;;;;5026574;28;20037;-86
2021/12/10 13:38:52;;;;;;;4.85;3.15;;;3.60;99.90;;;;;;5026298;28;20089;-83
2021/12/10 13:41:27;;;;;;;5.50;2.75;;;3.70;99.90;;;;;;5026727;28;20061;-84
2021/12/10 13:44:20;;;;;;;6.60;2.70;;;3.70;99.90;;;;;;5028521;28;20386;-86
2021/12/10 13:46:49;;;;;;;3.67;2.40;;;3.80;99.90;;;;;;5037502;28;20053;-83
2021/12/10 13:49:18;;;;;;;4.45;2.15;;;5.30;99.90;;;;;;5029816;28;20399;-86